sensor_id;sensor_type;location;lat;lon;timestamp;P1;durP1;ratioP1;P2;durP2;ratioP2
55465;SDS011;41329;41.594;23.810;2022-09-09T00:04:47;9.18;;;8.57;;
55465;SDS011;41329;41.594;23.810;2022-09-09T00:15:43;9.88;;;9.10;;
55465;SDS011;41329;41.594;23.810;2022-09-09T00:18:33;8.82;;;8.20;;
55465;SDS011;41329;41.594;23.810;2022-09-09T00:21:24;9.02;;;8.35;;
55465;SDS011;41329;41.594;23.810;2022-09-09T00:23:58;8.40;;;8.00;;
55465;SDS011;41329;41.594;23.810;2022-09-09T00:31:37;8.10;;;7.70;;
55465;SDS011;41329;41.594;23.810;2022-09-09T00:36:41;8.80;;;8.20;;
55465;SDS011;41329;41.594;23.810;2022-09-09T00:45:17;8.65;;;8.15;;
55465;SDS011;41329;41.594;23.810;2022-09-09T00:48:05;8.52;;;7.97;;
55465;SDS011;41329;41.594;23.810;2022-09-09T00:55:54;8.25;;;7.75;;
55465;SDS011;41329;41.594;23.810;2022-09-09T00:58:30;8.88;;;8.38;;
55465;SDS011;41329;41.594;23.810;2022-09-09T01:00:57;8.10;;;7.70;;
55465;SDS011;41329;41.594;23.810;2022-09-09T01:03:37;8.25;;;7.78;;
55465;SDS011;41329;41.594;23.810;2022-09-09T01:11:40;8.00;;;7.40;;
55465;SDS011;41329;41.594;23.810;2022-09-09T01:17:01;8.38;;;7.97;;
55465;SDS011;41329;41.594;23.810;2022-09-09T01:25:06;9.25;;;8.75;;
55465;SDS011;41329;41.594;23.810;2022-09-09T01:27:44;8.35;;;7.68;;
55465;SDS011;41329;41.594;23.810;2022-09-09T01:30:14;8.55;;;7.93;;
55465;SDS011;41329;41.594;23.810;2022-09-09T01:32:46;8.50;;;8.10;;
55465;SDS011;41329;41.594;23.810;2022-09-09T01:38:01;9.80;;;9.13;;
55465;SDS011;41329;41.594;23.810;2022-09-09T01:40:27;8.27;;;7.88;;
55465;SDS011;41329;41.594;23.810;2022-09-09T01:42:52;9.40;;;8.88;;
55465;SDS011;41329;41.594;23.810;2022-09-09T01:45:18;8.57;;;8.10;;
55465;SDS011;41329;41.594;23.810;2022-09-09T01:47:44;8.93;;;8.40;;
55465;SDS011;41329;41.594;23.810;2022-09-09T01:50:11;10.50;;;9.60;;
55465;SDS011;41329;41.594;23.810;2022-09-09T01:52:39;9.32;;;8.82;;
55465;SDS011;41329;41.594;23.810;2022-09-09T01:55:07;8.45;;;8.05;;
55465;SDS011;41329;41.594;23.810;2022-09-09T01:57:39;8.65;;;8.25;;
55465;SDS011;41329;41.594;23.810;2022-09-09T02:00:15;9.43;;;8.75;;
55465;SDS011;41329;41.594;23.810;2022-09-09T02:05:33;9.35;;;8.57;;
55465;SDS011;41329;41.594;23.810;2022-09-09T02:13:40;9.40;;;8.90;;
55465;SDS011;41329;41.594;23.810;2022-09-09T02:16:12;9.15;;;8.60;;
55465;SDS011;41329;41.594;23.810;2022-09-09T02:21:37;8.80;;;8.15;;
55465;SDS011;41329;41.594;23.810;2022-09-09T02:24:06;10.30;;;9.27;;
55465;SDS011;41329;41.594;23.810;2022-09-09T02:26:36;9.90;;;9.07;;
55465;SDS011;41329;41.594;23.810;2022-09-09T02:29:06;9.02;;;8.52;;
55465;SDS011;41329;41.594;23.810;2022-09-09T02:31:36;8.27;;;7.82;;
55465;SDS011;41329;41.594;23.810;2022-09-09T02:34:03;9.25;;;8.55;;
55465;SDS011;41329;41.594;23.810;2022-09-09T02:36:33;8.90;;;8.48;;
55465;SDS011;41329;41.594;23.810;2022-09-09T02:39:02;8.95;;;8.45;;
55465;SDS011;41329;41.594;23.810;2022-09-09T02:41:31;9.55;;;9.05;;
55465;SDS011;41329;41.594;23.810;2022-09-09T02:43:58;9.35;;;8.35;;
55465;SDS011;41329;41.594;23.810;2022-09-09T02:46:32;9.20;;;8.73;;
55465;SDS011;41329;41.594;23.810;2022-09-09T02:49:15;9.35;;;8.65;;
55465;SDS011;41329;41.594;23.810;2022-09-09T02:51:55;8.52;;;8.02;;
55465;SDS011;41329;41.594;23.810;2022-09-09T02:54:29;9.02;;;8.63;;
55465;SDS011;41329;41.594;23.810;2022-09-09T02:56:59;9.00;;;8.40;;
55465;SDS011;41329;41.594;23.810;2022-09-09T02:59:27;9.00;;;8.40;;
55465;SDS011;41329;41.594;23.810;2022-09-09T03:01:52;9.07;;;8.57;;
55465;SDS011;41329;41.594;23.810;2022-09-09T03:04:18;8.63;;;8.13;;
55465;SDS011;41329;41.594;23.810;2022-09-09T03:06:44;12.10;;;11.02;;
55465;SDS011;41329;41.594;23.810;2022-09-09T03:09:09;27.27;;;17.15;;
55465;SDS011;41329;41.594;23.810;2022-09-09T03:11:35;13.07;;;11.82;;
55465;SDS011;41329;41.594;23.810;2022-09-09T03:14:01;17.38;;;13.15;;
55465;SDS011;41329;41.594;23.810;2022-09-09T03:16:27;13.45;;;12.13;;
55465;SDS011;41329;41.594;23.810;2022-09-09T03:18:52;11.68;;;10.57;;
55465;SDS011;41329;41.594;23.810;2022-09-09T03:21:18;10.48;;;9.68;;
55465;SDS011;41329;41.594;23.810;2022-09-09T03:23:43;9.38;;;8.88;;
55465;SDS011;41329;41.594;23.810;2022-09-09T03:26:09;11.25;;;10.23;;
55465;SDS011;41329;41.594;23.810;2022-09-09T03:28:36;11.30;;;10.50;;
55465;SDS011;41329;41.594;23.810;2022-09-09T03:31:02;10.00;;;9.50;;
55465;SDS011;41329;41.594;23.810;2022-09-09T03:33:29;10.95;;;10.10;;
55465;SDS011;41329;41.594;23.810;2022-09-09T03:35:55;10.18;;;9.52;;
55465;SDS011;41329;41.594;23.810;2022-09-09T03:38:22;10.35;;;9.82;;
55465;SDS011;41329;41.594;23.810;2022-09-09T03:40:54;9.32;;;8.77;;
55465;SDS011;41329;41.594;23.810;2022-09-09T03:43:22;9.98;;;9.48;;
55465;SDS011;41329;41.594;23.810;2022-09-09T03:45:49;10.05;;;9.10;;
55465;SDS011;41329;41.594;23.810;2022-09-09T03:48:18;10.02;;;9.27;;
55465;SDS011;41329;41.594;23.810;2022-09-09T03:50:47;9.35;;;8.85;;
55465;SDS011;41329;41.594;23.810;2022-09-09T03:55:51;10.38;;;9.40;;
55465;SDS011;41329;41.594;23.810;2022-09-09T03:58:19;10.80;;;9.52;;
55465;SDS011;41329;41.594;23.810;2022-09-09T04:00:55;10.32;;;9.27;;
55465;SDS011;41329;41.594;23.810;2022-09-09T04:03:22;10.20;;;9.50;;
55465;SDS011;41329;41.594;23.810;2022-09-09T04:05:49;10.25;;;9.65;;
55465;SDS011;41329;41.594;23.810;2022-09-09T04:08:18;9.85;;;8.93;;
55465;SDS011;41329;41.594;23.810;2022-09-09T04:10:48;9.63;;;8.98;;
55465;SDS011;41329;41.594;23.810;2022-09-09T04:13:15;10.80;;;10.02;;
55465;SDS011;41329;41.594;23.810;2022-09-09T04:15:42;10.43;;;9.70;;
55465;SDS011;41329;41.594;23.810;2022-09-09T04:18:08;9.40;;;8.80;;
55465;SDS011;41329;41.594;23.810;2022-09-09T04:20:33;10.50;;;9.90;;
55465;SDS011;41329;41.594;23.810;2022-09-09T04:22:59;10.70;;;10.00;;
55465;SDS011;41329;41.594;23.810;2022-09-09T04:25:24;9.88;;;9.38;;
55465;SDS011;41329;41.594;23.810;2022-09-09T04:27:56;9.57;;;8.88;;
55465;SDS011;41329;41.594;23.810;2022-09-09T04:30:23;9.73;;;9.23;;
55465;SDS011;41329;41.594;23.810;2022-09-09T04:32:50;9.10;;;8.63;;
55465;SDS011;41329;41.594;23.810;2022-09-09T04:35:15;10.55;;;9.77;;
55465;SDS011;41329;41.594;23.810;2022-09-09T04:37:41;10.38;;;9.88;;
55465;SDS011;41329;41.594;23.810;2022-09-09T04:40:07;10.52;;;9.65;;
55465;SDS011;41329;41.594;23.810;2022-09-09T04:42:38;10.93;;;10.32;;
55465;SDS011;41329;41.594;23.810;2022-09-09T04:45:04;11.25;;;10.55;;
55465;SDS011;41329;41.594;23.810;2022-09-09T04:47:31;11.43;;;10.65;;
55465;SDS011;41329;41.594;23.810;2022-09-09T04:49:57;12.43;;;11.63;;
55465;SDS011;41329;41.594;23.810;2022-09-09T04:52:23;11.82;;;11.13;;
55465;SDS011;41329;41.594;23.810;2022-09-09T04:54:48;12.05;;;10.98;;
55465;SDS011;41329;41.594;23.810;2022-09-09T04:57:14;13.55;;;12.45;;
55465;SDS011;41329;41.594;23.810;2022-09-09T04:59:39;16.98;;;15.35;;
55465;SDS011;41329;41.594;23.810;2022-09-09T05:02:05;14.55;;;13.32;;
55465;SDS011;41329;41.594;23.810;2022-09-09T05:04:31;13.60;;;12.50;;
55465;SDS011;41329;41.594;23.810;2022-09-09T05:06:58;13.68;;;12.70;;
55465;SDS011;41329;41.594;23.810;2022-09-09T05:09:24;12.52;;;11.75;;
55465;SDS011;41329;41.594;23.810;2022-09-09T05:11:49;13.25;;;12.05;;
55465;SDS011;41329;41.594;23.810;2022-09-09T05:14:15;33.47;;;11.75;;
55465;SDS011;41329;41.594;23.810;2022-09-09T05:16:41;17.98;;;10.75;;
55465;SDS011;41329;41.594;23.810;2022-09-09T05:19:09;16.48;;;12.65;;
55465;SDS011;41329;41.594;23.810;2022-09-09T05:21:34;13.45;;;12.52;;
55465;SDS011;41329;41.594;23.810;2022-09-09T05:24:00;15.38;;;13.68;;
55465;SDS011;41329;41.594;23.810;2022-09-09T05:26:25;14.13;;;12.90;;
55465;SDS011;41329;41.594;23.810;2022-09-09T05:28:51;14.10;;;12.95;;
55465;SDS011;41329;41.594;23.810;2022-09-09T05:31:17;14.07;;;13.02;;
55465;SDS011;41329;41.594;23.810;2022-09-09T05:33:44;15.38;;;14.00;;
55465;SDS011;41329;41.594;23.810;2022-09-09T05:36:18;13.85;;;12.95;;
55465;SDS011;41329;41.594;23.810;2022-09-09T05:38:45;13.23;;;12.45;;
55465;SDS011;41329;41.594;23.810;2022-09-09T05:41:11;14.93;;;13.63;;
55465;SDS011;41329;41.594;23.810;2022-09-09T05:43:37;17.88;;;13.50;;
55465;SDS011;41329;41.594;23.810;2022-09-09T05:46:04;14.38;;;13.38;;
55465;SDS011;41329;41.594;23.810;2022-09-09T05:48:32;13.80;;;12.88;;
55465;SDS011;41329;41.594;23.810;2022-09-09T05:51:02;13.05;;;12.38;;
55465;SDS011;41329;41.594;23.810;2022-09-09T05:53:29;14.25;;;13.27;;
55465;SDS011;41329;41.594;23.810;2022-09-09T05:56:03;13.48;;;12.57;;
55465;SDS011;41329;41.594;23.810;2022-09-09T05:58:30;13.75;;;12.95;;
55465;SDS011;41329;41.594;23.810;2022-09-09T06:01:00;13.77;;;12.70;;
55465;SDS011;41329;41.594;23.810;2022-09-09T06:03:26;13.40;;;12.60;;
55465;SDS011;41329;41.594;23.810;2022-09-09T06:06:02;15.88;;;14.77;;
55465;SDS011;41329;41.594;23.810;2022-09-09T06:08:32;16.30;;;15.20;;
55465;SDS011;41329;41.594;23.810;2022-09-09T06:11:05;15.15;;;14.25;;
55465;SDS011;41329;41.594;23.810;2022-09-09T06:13:33;16.38;;;14.88;;
55465;SDS011;41329;41.594;23.810;2022-09-09T06:15:58;16.30;;;15.48;;
55465;SDS011;41329;41.594;23.810;2022-09-09T06:18:27;14.57;;;13.77;;
55465;SDS011;41329;41.594;23.810;2022-09-09T06:20:58;14.40;;;13.52;;
55465;SDS011;41329;41.594;23.810;2022-09-09T06:23:26;14.45;;;13.45;;
55465;SDS011;41329;41.594;23.810;2022-09-09T06:25:59;14.38;;;13.35;;
55465;SDS011;41329;41.594;23.810;2022-09-09T06:28:33;15.05;;;14.00;;
55465;SDS011;41329;41.594;23.810;2022-09-09T06:31:00;14.45;;;13.40;;
55465;SDS011;41329;41.594;23.810;2022-09-09T06:33:30;14.77;;;13.85;;
55465;SDS011;41329;41.594;23.810;2022-09-09T06:35:57;15.88;;;14.73;;
55465;SDS011;41329;41.594;23.810;2022-09-09T06:38:23;16.30;;;15.02;;
55465;SDS011;41329;41.594;23.810;2022-09-09T06:40:55;14.70;;;13.68;;
55465;SDS011;41329;41.594;23.810;2022-09-09T06:43:23;14.25;;;13.40;;
55465;SDS011;41329;41.594;23.810;2022-09-09T06:45:55;15.95;;;14.75;;
55465;SDS011;41329;41.594;23.810;2022-09-09T06:48:25;17.92;;;16.63;;
55465;SDS011;41329;41.594;23.810;2022-09-09T06:50:59;37.40;;;34.05;;
55465;SDS011;41329;41.594;23.810;2022-09-09T06:53:29;35.78;;;32.63;;
55465;SDS011;41329;41.594;23.810;2022-09-09T06:55:55;51.63;;;46.80;;
55465;SDS011;41329;41.594;23.810;2022-09-09T06:58:20;53.85;;;48.25;;
55465;SDS011;41329;41.594;23.810;2022-09-09T07:00:48;45.42;;;41.25;;
55465;SDS011;41329;41.594;23.810;2022-09-09T07:03:14;34.25;;;31.73;;
55465;SDS011;41329;41.594;23.810;2022-09-09T07:05:40;24.13;;;22.58;;
55465;SDS011;41329;41.594;23.810;2022-09-09T07:08:05;21.70;;;20.05;;
55465;SDS011;41329;41.594;23.810;2022-09-09T07:10:31;23.30;;;21.67;;
55465;SDS011;41329;41.594;23.810;2022-09-09T07:12:58;18.75;;;17.05;;
55465;SDS011;41329;41.594;23.810;2022-09-09T07:15:25;17.33;;;16.42;;
55465;SDS011;41329;41.594;23.810;2022-09-09T07:17:51;17.27;;;16.08;;
55465;SDS011;41329;41.594;23.810;2022-09-09T07:20:18;23.38;;;21.58;;
55465;SDS011;41329;41.594;23.810;2022-09-09T07:22:45;20.73;;;19.38;;
55465;SDS011;41329;41.594;23.810;2022-09-09T07:25:10;17.67;;;16.23;;
55465;SDS011;41329;41.594;23.810;2022-09-09T07:27:36;14.18;;;12.50;;
55465;SDS011;41329;41.594;23.810;2022-09-09T07:30:02;15.20;;;14.30;;
55465;SDS011;41329;41.594;23.810;2022-09-09T07:32:28;14.05;;;13.35;;
55465;SDS011;41329;41.594;23.810;2022-09-09T07:34:55;12.43;;;11.73;;
55465;SDS011;41329;41.594;23.810;2022-09-09T07:37:23;12.10;;;11.25;;
55465;SDS011;41329;41.594;23.810;2022-09-09T07:39:49;11.10;;;10.48;;
55465;SDS011;41329;41.594;23.810;2022-09-09T07:42:16;11.73;;;11.10;;
55465;SDS011;41329;41.594;23.810;2022-09-09T07:44:42;10.60;;;10.10;;
55465;SDS011;41329;41.594;23.810;2022-09-09T07:47:07;10.95;;;10.35;;
55465;SDS011;41329;41.594;23.810;2022-09-09T07:49:33;10.15;;;9.55;;
55465;SDS011;41329;41.594;23.810;2022-09-09T07:51:58;13.18;;;12.45;;
55465;SDS011;41329;41.594;23.810;2022-09-09T07:54:24;9.80;;;9.20;;
55465;SDS011;41329;41.594;23.810;2022-09-09T07:56:51;10.38;;;9.68;;
55465;SDS011;41329;41.594;23.810;2022-09-09T08:02:08;8.80;;;8.40;;
55465;SDS011;41329;41.594;23.810;2022-09-09T08:04:34;8.80;;;8.40;;
55465;SDS011;41329;41.594;23.810;2022-09-09T08:07:00;9.85;;;9.35;;
55465;SDS011;41329;41.594;23.810;2022-09-09T08:09:26;9.77;;;9.07;;
55465;SDS011;41329;41.594;23.810;2022-09-09T08:11:54;10.45;;;9.43;;
55465;SDS011;41329;41.594;23.810;2022-09-09T08:14:22;11.95;;;8.80;;
55465;SDS011;41329;41.594;23.810;2022-09-09T08:16:48;8.48;;;7.97;;
55465;SDS011;41329;41.594;23.810;2022-09-09T08:19:15;8.88;;;8.38;;
55465;SDS011;41329;41.594;23.810;2022-09-09T08:21:41;8.65;;;8.25;;
55465;SDS011;41329;41.594;23.810;2022-09-09T08:24:09;9.00;;;8.43;;
55465;SDS011;41329;41.594;23.810;2022-09-09T08:26:39;9.55;;;8.70;;
55465;SDS011;41329;41.594;23.810;2022-09-09T08:29:09;7.78;;;7.38;;
55465;SDS011;41329;41.594;23.810;2022-09-09T08:31:38;7.50;;;7.10;;
55465;SDS011;41329;41.594;23.810;2022-09-09T08:34:13;8.63;;;7.82;;
55465;SDS011;41329;41.594;23.810;2022-09-09T08:36:41;8.07;;;7.68;;
55465;SDS011;41329;41.594;23.810;2022-09-09T08:39:09;8.05;;;7.65;;
55465;SDS011;41329;41.594;23.810;2022-09-09T08:41:50;8.38;;;7.97;;
55465;SDS011;41329;41.594;23.810;2022-09-09T08:52:54;7.93;;;7.25;;
55465;SDS011;41329;41.594;23.810;2022-09-09T09:03:30;7.13;;;6.72;;
55465;SDS011;41329;41.594;23.810;2022-09-09T09:11:48;6.85;;;6.35;;
55465;SDS011;41329;41.594;23.810;2022-09-09T09:14:23;6.53;;;6.23;;
55465;SDS011;41329;41.594;23.810;2022-09-09T09:19:29;6.50;;;5.97;;
55465;SDS011;41329;41.594;23.810;2022-09-09T09:32:40;6.05;;;5.75;;
55465;SDS011;41329;41.594;23.810;2022-09-09T09:35:16;6.32;;;5.85;;
55465;SDS011;41329;41.594;23.810;2022-09-09T09:37:41;5.80;;;5.47;;
55465;SDS011;41329;41.594;23.810;2022-09-09T09:40:18;6.00;;;5.60;;
55465;SDS011;41329;41.594;23.810;2022-09-09T09:42:56;5.90;;;5.22;;
55465;SDS011;41329;41.594;23.810;2022-09-09T09:48:00;5.38;;;5.03;;
55465;SDS011;41329;41.594;23.810;2022-09-09T09:50:29;5.43;;;5.13;;
55465;SDS011;41329;41.594;23.810;2022-09-09T09:53:00;5.72;;;5.43;;
55465;SDS011;41329;41.594;23.810;2022-09-09T09:55:29;5.90;;;5.50;;
55465;SDS011;41329;41.594;23.810;2022-09-09T09:58:01;6.20;;;5.68;;
55465;SDS011;41329;41.594;23.810;2022-09-09T10:00:31;5.38;;;5.00;;
55465;SDS011;41329;41.594;23.810;2022-09-09T10:02:59;5.70;;;5.43;;
55465;SDS011;41329;41.594;23.810;2022-09-09T10:05:26;6.07;;;5.68;;
55465;SDS011;41329;41.594;23.810;2022-09-09T10:08:09;5.75;;;5.35;;
55465;SDS011;41329;41.594;23.810;2022-09-09T10:19:26;5.88;;;5.47;;
55465;SDS011;41329;41.594;23.810;2022-09-09T10:27:19;5.10;;;4.70;;
55465;SDS011;41329;41.594;23.810;2022-09-09T10:29:58;4.95;;;4.63;;
55465;SDS011;41329;41.594;23.810;2022-09-09T10:54:53;5.07;;;4.78;;
55465;SDS011;41329;41.594;23.810;2022-09-09T10:57:33;5.25;;;4.85;;
55465;SDS011;41329;41.594;23.810;2022-09-09T11:00:06;5.38;;;5.07;;
55465;SDS011;41329;41.594;23.810;2022-09-09T11:02:39;4.30;;;4.03;;
55465;SDS011;41329;41.594;23.810;2022-09-09T11:08:01;5.15;;;4.75;;
55465;SDS011;41329;41.594;23.810;2022-09-09T11:12:57;5.00;;;4.70;;
55465;SDS011;41329;41.594;23.810;2022-09-09T11:15:35;4.60;;;4.20;;
55465;SDS011;41329;41.594;23.810;2022-09-09T11:18:11;5.40;;;4.95;;
55465;SDS011;41329;41.594;23.810;2022-09-09T11:20:44;4.68;;;4.38;;
55465;SDS011;41329;41.594;23.810;2022-09-09T11:23:20;5.03;;;4.72;;
55465;SDS011;41329;41.594;23.810;2022-09-09T11:25:56;5.45;;;4.93;;
55465;SDS011;41329;41.594;23.810;2022-09-09T11:42:16;4.85;;;4.65;;
55465;SDS011;41329;41.594;23.810;2022-09-09T11:44:43;4.50;;;4.03;;
55465;SDS011;41329;41.594;23.810;2022-09-09T11:47:16;4.55;;;4.18;;
55465;SDS011;41329;41.594;23.810;2022-09-09T11:55:26;6.32;;;4.10;;
55465;SDS011;41329;41.594;23.810;2022-09-09T11:58:01;4.03;;;3.80;;
55465;SDS011;41329;41.594;23.810;2022-09-09T12:00:35;5.05;;;4.75;;
55465;SDS011;41329;41.594;23.810;2022-09-09T12:03:50;4.15;;;3.88;;
55465;SDS011;41329;41.594;23.810;2022-09-09T12:06:17;4.43;;;4.10;;
55465;SDS011;41329;41.594;23.810;2022-09-09T12:08:46;4.28;;;3.97;;
55465;SDS011;41329;41.594;23.810;2022-09-09T12:11:26;4.30;;;4.00;;
55465;SDS011;41329;41.594;23.810;2022-09-09T12:13:57;4.28;;;4.07;;
55465;SDS011;41329;41.594;23.810;2022-09-09T12:16:33;5.00;;;4.60;;
55465;SDS011;41329;41.594;23.810;2022-09-09T12:19:04;4.45;;;4.25;;
55465;SDS011;41329;41.594;23.810;2022-09-09T12:22:26;3.80;;;3.60;;
55465;SDS011;41329;41.594;23.810;2022-09-09T12:27:44;4.75;;;4.45;;
55465;SDS011;41329;41.594;23.810;2022-09-09T12:30:22;5.13;;;4.63;;
55465;SDS011;41329;41.594;23.810;2022-09-09T12:33:01;4.85;;;4.32;;
55465;SDS011;41329;41.594;23.810;2022-09-09T12:35:33;4.32;;;4.07;;
55465;SDS011;41329;41.594;23.810;2022-09-09T12:38:03;4.18;;;3.97;;
55465;SDS011;41329;41.594;23.810;2022-09-09T12:40:36;4.53;;;4.10;;
55465;SDS011;41329;41.594;23.810;2022-09-09T12:43:14;4.78;;;3.70;;
55465;SDS011;41329;41.594;23.810;2022-09-09T12:45:43;4.65;;;4.35;;
55465;SDS011;41329;41.594;23.810;2022-09-09T12:48:10;4.20;;;3.90;;
55465;SDS011;41329;41.594;23.810;2022-09-09T12:50:47;4.00;;;3.80;;
55465;SDS011;41329;41.594;23.810;2022-09-09T12:56:09;4.53;;;4.22;;
55465;SDS011;41329;41.594;23.810;2022-09-09T12:58:45;5.05;;;4.43;;
55465;SDS011;41329;41.594;23.810;2022-09-09T13:01:23;3.92;;;3.63;;
55465;SDS011;41329;41.594;23.810;2022-09-09T13:03:56;5.35;;;4.22;;
55465;SDS011;41329;41.594;23.810;2022-09-09T13:06:31;4.65;;;3.70;;
55465;SDS011;41329;41.594;23.810;2022-09-09T13:08:58;12.60;;;4.45;;
55465;SDS011;41329;41.594;23.810;2022-09-09T13:11:26;4.50;;;4.10;;
55465;SDS011;41329;41.594;23.810;2022-09-09T13:14:00;4.63;;;4.22;;
55465;SDS011;41329;41.594;23.810;2022-09-09T13:16:31;4.28;;;3.95;;
55465;SDS011;41329;41.594;23.810;2022-09-09T13:18:59;4.18;;;3.88;;
55465;SDS011;41329;41.594;23.810;2022-09-09T13:21:56;4.63;;;4.22;;
55465;SDS011;41329;41.594;23.810;2022-09-09T13:24:32;3.70;;;3.50;;
55465;SDS011;41329;41.594;23.810;2022-09-09T13:27:00;3.83;;;3.63;;
55465;SDS011;41329;41.594;23.810;2022-09-09T13:29:27;17.40;;;4.57;;
55465;SDS011;41329;41.594;23.810;2022-09-09T13:32:02;6.82;;;4.43;;
55465;SDS011;41329;41.594;23.810;2022-09-09T13:34:32;4.05;;;3.65;;
55465;SDS011;41329;41.594;23.810;2022-09-09T13:37:00;4.40;;;3.97;;
55465;SDS011;41329;41.594;23.810;2022-09-09T13:39:27;5.93;;;3.92;;
55465;SDS011;41329;41.594;23.810;2022-09-09T13:41:53;4.00;;;3.72;;
55465;SDS011;41329;41.594;23.810;2022-09-09T13:44:29;4.28;;;3.95;;
55465;SDS011;41329;41.594;23.810;2022-09-09T13:47:01;4.88;;;4.00;;
55465;SDS011;41329;41.594;23.810;2022-09-09T13:49:46;3.85;;;3.55;;
55465;SDS011;41329;41.594;23.810;2022-09-09T13:52:13;4.07;;;3.75;;
55465;SDS011;41329;41.594;23.810;2022-09-09T13:54:47;7.22;;;3.92;;
55465;SDS011;41329;41.594;23.810;2022-09-09T13:57:23;4.93;;;4.53;;
55465;SDS011;41329;41.594;23.810;2022-09-09T13:59:50;8.95;;;4.25;;
55465;SDS011;41329;41.594;23.810;2022-09-09T14:02:16;5.70;;;4.18;;
55465;SDS011;41329;41.594;23.810;2022-09-09T14:04:42;7.90;;;4.20;;
55465;SDS011;41329;41.594;23.810;2022-09-09T14:07:12;4.43;;;4.07;;
55465;SDS011;41329;41.594;23.810;2022-09-09T14:09:40;4.78;;;4.38;;
55465;SDS011;41329;41.594;23.810;2022-09-09T14:12:12;5.30;;;4.55;;
55465;SDS011;41329;41.594;23.810;2022-09-09T14:14:40;4.97;;;4.63;;
55465;SDS011;41329;41.594;23.810;2022-09-09T14:17:07;5.63;;;4.72;;
55465;SDS011;41329;41.594;23.810;2022-09-09T14:19:33;5.60;;;4.63;;
55465;SDS011;41329;41.594;23.810;2022-09-09T14:21:59;5.53;;;5.03;;
55465;SDS011;41329;41.594;23.810;2022-09-09T14:24:26;5.30;;;4.68;;
55465;SDS011;41329;41.594;23.810;2022-09-09T14:26:51;5.18;;;4.30;;
55465;SDS011;41329;41.594;23.810;2022-09-09T14:29:17;5.75;;;5.30;;
55465;SDS011;41329;41.594;23.810;2022-09-09T14:31:42;5.47;;;5.05;;
55465;SDS011;41329;41.594;23.810;2022-09-09T14:34:08;5.20;;;4.68;;
55465;SDS011;41329;41.594;23.810;2022-09-09T14:36:36;4.60;;;4.30;;
55465;SDS011;41329;41.594;23.810;2022-09-09T14:39:01;4.72;;;4.35;;
55465;SDS011;41329;41.594;23.810;2022-09-09T14:41:27;4.85;;;4.45;;
55465;SDS011;41329;41.594;23.810;2022-09-09T14:43:54;4.95;;;4.55;;
55465;SDS011;41329;41.594;23.810;2022-09-09T14:46:19;4.53;;;4.13;;
55465;SDS011;41329;41.594;23.810;2022-09-09T14:48:45;6.97;;;3.88;;
55465;SDS011;41329;41.594;23.810;2022-09-09T14:51:17;4.15;;;3.85;;
55465;SDS011;41329;41.594;23.810;2022-09-09T14:53:46;4.72;;;4.43;;
55465;SDS011;41329;41.594;23.810;2022-09-09T14:56:13;4.15;;;3.75;;
55465;SDS011;41329;41.594;23.810;2022-09-09T14:58:43;4.82;;;4.40;;
55465;SDS011;41329;41.594;23.810;2022-09-09T15:01:11;4.80;;;4.50;;
55465;SDS011;41329;41.594;23.810;2022-09-09T15:03:38;5.07;;;4.63;;
55465;SDS011;41329;41.594;23.810;2022-09-09T15:06:06;5.38;;;4.53;;
55465;SDS011;41329;41.594;23.810;2022-09-09T15:08:59;4.38;;;4.07;;
55465;SDS011;41329;41.594;23.810;2022-09-09T15:11:26;6.90;;;6.40;;
55465;SDS011;41329;41.594;23.810;2022-09-09T15:13:55;4.75;;;4.38;;
55465;SDS011;41329;41.594;23.810;2022-09-09T15:16:22;4.18;;;3.72;;
55465;SDS011;41329;41.594;23.810;2022-09-09T15:18:50;6.72;;;4.50;;
55465;SDS011;41329;41.594;23.810;2022-09-09T15:21:18;5.88;;;3.92;;
55465;SDS011;41329;41.594;23.810;2022-09-09T15:23:46;4.70;;;4.30;;
55465;SDS011;41329;41.594;23.810;2022-09-09T15:26:12;4.55;;;4.18;;
55465;SDS011;41329;41.594;23.810;2022-09-09T15:28:42;4.47;;;4.10;;
55465;SDS011;41329;41.594;23.810;2022-09-09T15:31:10;4.82;;;3.60;;
55465;SDS011;41329;41.594;23.810;2022-09-09T15:33:39;4.07;;;3.78;;
55465;SDS011;41329;41.594;23.810;2022-09-09T15:36:39;6.88;;;4.70;;
55465;SDS011;41329;41.594;23.810;2022-09-09T15:38:58;4.43;;;4.20;;
55465;SDS011;41329;41.594;23.810;2022-09-09T15:41:24;5.25;;;4.85;;
55465;SDS011;41329;41.594;23.810;2022-09-09T15:43:51;4.50;;;4.20;;
55465;SDS011;41329;41.594;23.810;2022-09-09T15:46:23;6.38;;;5.78;;
55465;SDS011;41329;41.594;23.810;2022-09-09T15:48:57;4.22;;;4.03;;
55465;SDS011;41329;41.594;23.810;2022-09-09T15:51:27;4.82;;;4.35;;
55465;SDS011;41329;41.594;23.810;2022-09-09T15:53:54;5.90;;;5.40;;
55465;SDS011;41329;41.594;23.810;2022-09-09T15:56:21;5.68;;;5.18;;
55465;SDS011;41329;41.594;23.810;2022-09-09T15:58:46;6.20;;;5.78;;
55465;SDS011;41329;41.594;23.810;2022-09-09T16:01:12;6.78;;;6.05;;
55465;SDS011;41329;41.594;23.810;2022-09-09T16:03:38;6.72;;;6.13;;
55465;SDS011;41329;41.594;23.810;2022-09-09T16:06:07;5.93;;;5.38;;
55465;SDS011;41329;41.594;23.810;2022-09-09T16:08:34;6.53;;;5.93;;
55465;SDS011;41329;41.594;23.810;2022-09-09T16:11:07;11.07;;;10.38;;
55465;SDS011;41329;41.594;23.810;2022-09-09T16:13:37;6.70;;;6.30;;
55465;SDS011;41329;41.594;23.810;2022-09-09T16:16:04;9.88;;;9.15;;
55465;SDS011;41329;41.594;23.810;2022-09-09T16:18:41;14.52;;;13.52;;
55465;SDS011;41329;41.594;23.810;2022-09-09T16:21:12;11.90;;;10.02;;
55465;SDS011;41329;41.594;23.810;2022-09-09T16:24:00;11.43;;;10.55;;
55465;SDS011;41329;41.594;23.810;2022-09-09T16:26:30;6.97;;;6.47;;
55465;SDS011;41329;41.594;23.810;2022-09-09T16:28:57;5.93;;;4.78;;
55465;SDS011;41329;41.594;23.810;2022-09-09T16:31:24;5.32;;;4.82;;
55465;SDS011;41329;41.594;23.810;2022-09-09T16:33:51;5.13;;;4.63;;
55465;SDS011;41329;41.594;23.810;2022-09-09T16:36:18;4.75;;;4.32;;
55465;SDS011;41329;41.594;23.810;2022-09-09T16:38:45;4.72;;;4.43;;
55465;SDS011;41329;41.594;23.810;2022-09-09T16:41:11;5.30;;;4.38;;
55465;SDS011;41329;41.594;23.810;2022-09-09T16:43:39;5.05;;;4.70;;
55465;SDS011;41329;41.594;23.810;2022-09-09T16:46:18;5.20;;;4.75;;
55465;SDS011;41329;41.594;23.810;2022-09-09T16:48:44;4.70;;;4.40;;
55465;SDS011;41329;41.594;23.810;2022-09-09T16:51:16;4.75;;;4.35;;
55465;SDS011;41329;41.594;23.810;2022-09-09T16:53:43;4.78;;;4.38;;
55465;SDS011;41329;41.594;23.810;2022-09-09T16:56:13;4.60;;;4.35;;
55465;SDS011;41329;41.594;23.810;2022-09-09T16:58:41;4.90;;;4.70;;
55465;SDS011;41329;41.594;23.810;2022-09-09T17:01:08;5.20;;;4.78;;
55465;SDS011;41329;41.594;23.810;2022-09-09T17:03:35;4.78;;;4.55;;
55465;SDS011;41329;41.594;23.810;2022-09-09T17:06:01;6.32;;;5.32;;
55465;SDS011;41329;41.594;23.810;2022-09-09T17:08:30;5.40;;;4.90;;
55465;SDS011;41329;41.594;23.810;2022-09-09T17:10:56;4.88;;;4.57;;
55465;SDS011;41329;41.594;23.810;2022-09-09T17:13:22;5.32;;;4.93;;
55465;SDS011;41329;41.594;23.810;2022-09-09T17:15:48;4.60;;;4.30;;
55465;SDS011;41329;41.594;23.810;2022-09-09T17:18:13;5.13;;;4.82;;
55465;SDS011;41329;41.594;23.810;2022-09-09T17:20:41;5.22;;;4.93;;
55465;SDS011;41329;41.594;23.810;2022-09-09T17:23:10;5.25;;;4.85;;
55465;SDS011;41329;41.594;23.810;2022-09-09T17:25:36;5.38;;;5.03;;
55465;SDS011;41329;41.594;23.810;2022-09-09T17:28:03;6.32;;;5.80;;
55465;SDS011;41329;41.594;23.810;2022-09-09T17:30:38;5.85;;;5.50;;